GLO1417 SBBR-SBSP
Flight info
| Callsign | GLO1417 |
|---|---|
| Flight time | N/A |
| Altitude | 35000 |
| Route | GEBEP UZ2 ENTIT |
| Aircraft | B738/M-SDE2E3FGHIRWXY/LB1 |
Departure
| Time | N/A |
|---|---|
| Airport | Presidente Juscelino Kubitschek International Airport (SBBR) |
Arrival
| Time | 2026-05-04 23:29 |
|---|---|
| Airport | Congonhas–Deputado Freitas Nobre Airport (SBSP) |
| Time | Latitude | Longitude | Altitude | Speed | Heading |
|---|---|---|---|---|---|
| 2026-05-04 23:03 | -21.55523 | -46.79482 | 35163 ft | 430 kts | 178° |
| 2026-05-04 23:03 | -21.58485 | -46.79015 | 35168 ft | 430 kts | 178° |
| 2026-05-04 23:04 | -21.64405 | -46.78080 | 35169 ft | 430 kts | 178° |
| 2026-05-04 23:04 | -21.70322 | -46.77146 | 35173 ft | 430 kts | 178° |
| 2026-05-04 23:05 | -21.76242 | -46.76210 | 35176 ft | 430 kts | 179° |
| 2026-05-04 23:05 | -21.82164 | -46.75274 | 35174 ft | 431 kts | 179° |
| 2026-05-04 23:06 | -21.86081 | -46.74653 | 35165 ft | 431 kts | 179° |
| 2026-05-04 23:06 | -21.92021 | -46.73712 | 35167 ft | 432 kts | 179° |
| 2026-05-04 23:07 | -21.97973 | -46.72768 | 35179 ft | 432 kts | 178° |
| 2026-05-04 23:07 | -22.03912 | -46.71824 | 34527 ft | 433 kts | 178° |
| 2026-05-04 23:08 | -22.06890 | -46.71351 | 33963 ft | 432 kts | 178° |
| 2026-05-04 23:08 | -22.09837 | -46.70884 | 33233 ft | 434 kts | 178° |
| 2026-05-04 23:08 | -22.12862 | -46.70404 | 32558 ft | 434 kts | 178° |
| 2026-05-04 23:08 | -22.15854 | -46.69929 | 31875 ft | 435 kts | 178° |
| 2026-05-04 23:09 | -22.18854 | -46.69447 | 31188 ft | 436 kts | 178° |
| 2026-05-04 23:09 | -22.21816 | -46.68977 | 30429 ft | 437 kts | 178° |
| 2026-05-04 23:09 | -22.24820 | -46.68501 | 29809 ft | 433 kts | 178° |
| 2026-05-04 23:09 | -22.27797 | -46.68028 | 29219 ft | 433 kts | 178° |
| 2026-05-04 23:10 | -22.30776 | -46.67555 | 28659 ft | 433 kts | 178° |
| 2026-05-04 23:10 | -22.33751 | -46.67082 | 28099 ft | 430 kts | 178° |
| 2026-05-04 23:10 | -22.36695 | -46.66610 | 27563 ft | 425 kts | 178° |
| 2026-05-04 23:10 | -22.39596 | -46.66474 | 27025 ft | 409 kts | 193° |
| 2026-05-04 23:11 | -22.42279 | -46.67264 | 26583 ft | 395 kts | 207° |
| 2026-05-04 23:11 | -22.44658 | -46.68676 | 26049 ft | 387 kts | 219° |
| 2026-05-04 23:11 | -22.46665 | -46.70579 | 25546 ft | 383 kts | 226° |
| 2026-05-04 23:11 | -22.48596 | -46.72597 | 25018 ft | 389 kts | 226° |
| 2026-05-04 23:12 | -22.50547 | -46.74635 | 24464 ft | 390 kts | 225° |
| 2026-05-04 23:12 | -22.52516 | -46.76646 | 23940 ft | 389 kts | 225° |
| 2026-05-04 23:12 | -22.54490 | -46.78638 | 23362 ft | 387 kts | 225° |
| 2026-05-04 23:12 | -22.56444 | -46.80606 | 23054 ft | 378 kts | 225° |
| 2026-05-04 23:13 | -22.58344 | -46.82521 | 22705 ft | 371 kts | 225° |
| 2026-05-04 23:13 | -22.60206 | -46.84405 | 22650 ft | 371 kts | 225° |
| 2026-05-04 23:13 | -22.62137 | -46.86364 | 22472 ft | 389 kts | 225° |
| 2026-05-04 23:13 | -22.64137 | -46.88393 | 22264 ft | 397 kts | 225° |
| 2026-05-04 23:14 | -22.66152 | -46.90433 | 22051 ft | 395 kts | 225° |
| 2026-05-04 23:14 | -22.68194 | -46.92409 | 21843 ft | 394 kts | 219° |
| 2026-05-04 23:14 | -22.70470 | -46.94062 | 21660 ft | 393 kts | 214° |
| 2026-05-04 23:14 | -22.72799 | -46.95585 | 21455 ft | 390 kts | 213° |
| 2026-05-04 23:15 | -22.75127 | -46.97096 | 21286 ft | 392 kts | 213° |
| 2026-05-04 23:15 | -22.77465 | -46.98640 | 21089 ft | 394 kts | 214° |
| 2026-05-04 23:15 | -22.79788 | -47.00200 | 20893 ft | 392 kts | 214° |
| 2026-05-04 23:15 | -22.82093 | -47.01766 | 20698 ft | 390 kts | 214° |
| 2026-05-04 23:16 | -22.84384 | -47.03331 | 20502 ft | 388 kts | 214° |
| 2026-05-04 23:16 | -22.86664 | -47.04890 | 20324 ft | 387 kts | 214° |
| 2026-05-04 23:16 | -22.88938 | -47.06443 | 20016 ft | 389 kts | 214° |
| 2026-05-04 23:16 | -22.91251 | -47.08011 | 19481 ft | 392 kts | 214° |
| 2026-05-04 23:17 | -22.93558 | -47.09569 | 18947 ft | 389 kts | 214° |
| 2026-05-04 23:17 | -22.95854 | -47.11119 | 18401 ft | 388 kts | 214° |
| 2026-05-04 23:17 | -22.98133 | -47.12661 | 17809 ft | 384 kts | 214° |
| 2026-05-04 23:17 | -23.00378 | -47.14138 | 17262 ft | 380 kts | 209° |
| 2026-05-04 23:18 | -23.02929 | -47.14994 | 16726 ft | 381 kts | 190° |
| 2026-05-04 23:18 | -23.05571 | -47.14988 | 16217 ft | 382 kts | 174° |
| 2026-05-04 23:18 | -23.08172 | -47.14449 | 15711 ft | 379 kts | 171° |
| 2026-05-04 23:18 | -23.10734 | -47.13843 | 15185 ft | 376 kts | 170° |
| 2026-05-04 23:19 | -23.13279 | -47.13238 | 14669 ft | 373 kts | 170° |
| 2026-05-04 23:19 | -23.15773 | -47.12661 | 14147 ft | 370 kts | 170° |
| 2026-05-04 23:19 | -23.18288 | -47.12095 | 13596 ft | 368 kts | 170° |
| 2026-05-04 23:19 | -23.20770 | -47.11546 | 13058 ft | 364 kts | 171° |
| 2026-05-04 23:20 | -23.23253 | -47.10998 | 12548 ft | 361 kts | 170° |
| 2026-05-04 23:20 | -23.25698 | -47.10459 | 12052 ft | 355 kts | 170° |
| 2026-05-04 23:20 | -23.28079 | -47.09935 | 11645 ft | 344 kts | 171° |
| 2026-05-04 23:20 | -23.30396 | -47.09428 | 11238 ft | 335 kts | 171° |
| 2026-05-04 23:21 | -23.32648 | -47.08936 | 10855 ft | 326 kts | 171° |
| 2026-05-04 23:21 | -23.34847 | -47.08454 | 10479 ft | 319 kts | 170° |
| 2026-05-04 23:21 | -23.37002 | -47.07982 | 10112 ft | 312 kts | 170° |
| 2026-05-04 23:21 | -23.39066 | -47.07527 | 10105 ft | 293 kts | 170° |
| 2026-05-04 23:22 | -23.41025 | -47.06948 | 9464 ft | 300 kts | 153° |
| 2026-05-04 23:22 | -23.42592 | -47.05489 | 9094 ft | 298 kts | 126° |
| 2026-05-04 23:22 | -23.43465 | -47.03480 | 8803 ft | 291 kts | 107° |
| 2026-05-04 23:22 | -23.44027 | -47.01367 | 8325 ft | 292 kts | 105° |
| 2026-05-04 23:23 | -23.44550 | -46.99250 | 8014 ft | 287 kts | 105° |
| 2026-05-04 23:23 | -23.45064 | -46.97172 | 7738 ft | 281 kts | 105° |
| 2026-05-04 23:23 | -23.45578 | -46.95129 | 7479 ft | 280 kts | 105° |
| 2026-05-04 23:23 | -23.46097 | -46.93092 | 7222 ft | 279 kts | 105° |
| 2026-05-04 23:24 | -23.46621 | -46.91053 | 6963 ft | 280 kts | 105° |
| 2026-05-04 23:24 | -23.47153 | -46.88991 | 6722 ft | 285 kts | 105° |
| 2026-05-04 23:24 | -23.47687 | -46.86933 | 6450 ft | 280 kts | 106° |
| 2026-05-04 23:24 | -23.48210 | -46.84917 | 6152 ft | 272 kts | 105° |
| 2026-05-04 23:25 | -23.48716 | -46.82962 | 5875 ft | 264 kts | 105° |
| 2026-05-04 23:25 | -23.49206 | -46.81066 | 5646 ft | 256 kts | 105° |
| 2026-05-04 23:25 | -23.49680 | -46.79238 | 5437 ft | 244 kts | 104° |
| 2026-05-04 23:25 | -23.50129 | -46.77502 | 5188 ft | 232 kts | 104° |
| 2026-05-04 23:26 | -23.50558 | -46.75849 | 4979 ft | 221 kts | 103° |
| 2026-05-04 23:26 | -23.50983 | -46.74287 | 4774 ft | 209 kts | 112° |
| 2026-05-04 23:26 | -23.51879 | -46.73158 | 4710 ft | 188 kts | 147° |
| 2026-05-04 23:26 | -23.52934 | -46.72411 | 4621 ft | 177 kts | 144° |
| 2026-05-04 23:27 | -23.53954 | -46.71673 | 4390 ft | 172 kts | 146° |
| 2026-05-04 23:27 | -23.54903 | -46.71014 | 4226 ft | 152 kts | 145° |
| 2026-05-04 23:27 | -23.55758 | -46.70422 | 4025 ft | 145 kts | 144° |
| 2026-05-04 23:27 | -23.56603 | -46.69836 | 3842 ft | 144 kts | 143° |
| 2026-05-04 23:28 | -23.57454 | -46.69249 | 3665 ft | 145 kts | 144° |
| 2026-05-04 23:28 | -23.58303 | -46.68662 | 3484 ft | 143 kts | 144° |
| 2026-05-04 23:28 | -23.59131 | -46.68090 | 3286 ft | 139 kts | 146° |
| 2026-05-04 23:28 | -23.59950 | -46.67523 | 3118 ft | 140 kts | 147° |
| 2026-05-04 23:29 | -23.60775 | -46.66953 | 2935 ft | 140 kts | 147° |
| 2026-05-04 23:29 | -23.61585 | -46.66395 | 2743 ft | 135 kts | 147° |
| 2026-05-04 23:29 | -23.62360 | -46.65857 | 2602 ft | 127 kts | 148° |
| 2026-05-04 23:29 | -23.62835 | -46.65530 | 2607 ft | 33 kts | 147° |
| 2026-05-04 23:30 | -23.62919 | -46.65522 | 2605 ft | 9 kts | 230° |
| 2026-05-04 23:30 | -23.62933 | -46.65550 | 2603 ft | 4 kts | 262° |
| 2026-05-04 23:30 | -23.62915 | -46.65579 | 2603 ft | 5 kts | 322° |
| 2026-05-04 23:30 | -23.62878 | -46.65608 | 2602 ft | 9 kts | 326° |
| 2026-05-04 23:31 | -23.62823 | -46.65645 | 2602 ft | 9 kts | 327° |
| 2026-05-04 23:31 | -23.62769 | -46.65683 | 2602 ft | 9 kts | 328° |
| 2026-05-04 23:31 | -23.62713 | -46.65722 | 2601 ft | 9 kts | 327° |
| 2026-05-04 23:31 | -23.62656 | -46.65762 | 2601 ft | 10 kts | 327° |
| 2026-05-04 23:32 | -23.62623 | -46.65790 | 2601 ft | 2 kts | 284° |
| 2026-05-04 23:32 | -23.62636 | -46.65828 | 2600 ft | 9 kts | 238° |
| 2026-05-04 23:32 | -23.62655 | -46.65860 | 2600 ft | 0 kts | 237° |
| 2026-05-04 23:32 | -23.62657 | -46.65863 | 2600 ft | 0 kts | 236° |
| 2026-05-04 23:33 | -23.62657 | -46.65864 | 2600 ft | 0 kts | 236° |